createdAt,value
2019-06-07T00:00:30.751Z,4.40
2019-06-07T00:02:40.248Z,4.27
2019-06-07T00:05:10.000Z,4.53
2019-06-07T00:07:39.239Z,4.40
2019-06-07T00:10:09.431Z,4.53
2019-06-07T00:12:38.163Z,4.60
2019-06-07T00:15:12.937Z,4.57
2019-06-07T00:17:37.533Z,4.30
2019-06-07T00:20:13.873Z,4.90
2019-06-07T00:22:39.694Z,4.40
2019-06-07T00:25:12.414Z,4.40
2019-06-07T00:27:39.574Z,4.70
2019-06-07T00:30:33.266Z,4.50
2019-06-07T00:32:40.475Z,4.90
2019-06-07T00:35:09.332Z,5.03
2019-06-07T00:37:38.025Z,4.77
2019-06-07T00:40:16.245Z,4.80
2019-06-07T00:42:37.520Z,4.53
2019-06-07T00:45:07.072Z,4.50
2019-06-07T00:47:35.669Z,4.53
2019-06-07T00:50:05.024Z,4.30
2019-06-07T00:55:07.592Z,4.40
2019-06-07T00:57:36.045Z,4.90
2019-06-07T01:00:07.880Z,4.67
2019-06-07T01:02:36.482Z,3.97
2019-06-07T01:05:07.019Z,4.67
2019-06-07T01:07:35.628Z,4.83
2019-06-07T01:10:06.876Z,4.67
2019-06-07T01:12:35.381Z,4.40
2019-06-07T01:15:05.267Z,4.80
2019-06-07T01:17:43.861Z,4.20
2019-06-07T01:20:09.380Z,4.60
2019-06-07T01:22:37.886Z,4.60
2019-06-07T01:25:09.173Z,4.47
2019-06-07T01:27:37.728Z,4.80
2019-06-07T01:30:10.963Z,4.43
2019-06-07T01:32:39.556Z,4.40
2019-06-07T01:35:08.616Z,4.30
2019-06-07T01:37:37.115Z,4.60
2019-06-07T01:40:08.600Z,4.17
2019-06-07T01:42:37.184Z,4.40
2019-06-07T01:45:09.944Z,4.90
2019-06-07T01:47:38.577Z,4.50
2019-06-07T01:50:09.197Z,4.90
2019-06-07T01:52:37.795Z,5.03
2019-06-07T01:55:07.158Z,5.00
2019-06-07T01:57:47.576Z,4.77
2019-06-07T02:00:07.057Z,4.50
2019-06-07T02:02:35.650Z,4.10
2019-06-07T02:05:08.141Z,4.80
2019-06-07T02:07:36.898Z,4.30
2019-06-07T02:10:09.139Z,4.73
2019-06-07T02:12:43.175Z,4.43
2019-06-07T02:15:09.327Z,4.70
2019-06-07T02:17:38.319Z,4.33
2019-06-07T02:20:07.651Z,5.00
2019-06-07T02:22:36.244Z,4.87
2019-06-07T02:25:35.085Z,4.53
2019-06-07T02:27:37.037Z,5.10
2019-06-07T02:30:35.381Z,4.50
2019-06-07T02:32:37.834Z,5.03
2019-06-07T02:35:06.955Z,4.90
2019-06-07T02:37:36.978Z,4.90
2019-06-07T02:40:07.603Z,4.60
2019-06-07T02:42:42.214Z,4.60
2019-06-07T02:45:10.719Z,4.73
2019-06-07T02:47:40.010Z,4.90
2019-06-07T02:50:11.540Z,4.53
2019-06-07T02:52:41.628Z,5.27
2019-06-07T02:55:11.791Z,4.87
2019-06-07T02:57:42.110Z,4.83
2019-06-07T03:00:47.487Z,4.60
2019-06-07T03:02:43.504Z,4.60
2019-06-07T03:05:12.665Z,5.03
2019-06-07T03:07:44.999Z,5.23
2019-06-07T03:10:13.363Z,5.00
2019-06-07T03:12:44.544Z,4.53
2019-06-07T03:15:32.185Z,4.63
2019-06-07T03:17:46.736Z,5.00
2019-06-07T03:20:17.050Z,4.90
2019-06-07T03:22:48.270Z,5.20
2019-06-07T03:28:08.295Z,5.13
2019-06-07T03:30:52.204Z,5.40
2019-06-07T03:33:07.176Z,5.00
2019-06-07T03:35:37.441Z,5.20
2019-06-07T03:38:05.919Z,5.03
2019-06-07T03:40:39.623Z,5.37
2019-06-07T03:43:04.661Z,5.50
2019-06-07T03:45:36.016Z,5.67
2019-06-07T03:48:03.483Z,5.40
2019-06-07T03:50:35.930Z,5.90
2019-06-07T03:53:02.299Z,5.93
2019-06-07T03:55:34.883Z,5.80
2019-06-07T03:58:30.640Z,5.83
2019-06-07T04:00:34.101Z,5.77
2019-06-07T04:03:01.619Z,5.37
2019-06-07T04:05:32.911Z,5.50
2019-06-07T04:08:00.373Z,6.00
2019-06-07T04:10:52.040Z,5.60
2019-06-07T04:12:59.168Z,5.53
2019-06-07T04:15:28.102Z,5.90
2019-06-07T04:18:01.788Z,6.00
2019-06-07T04:20:29.195Z,6.10
2019-06-07T04:22:57.222Z,5.73
2019-06-07T04:25:26.035Z,6.07
2019-06-07T04:27:54.522Z,7.47
2019-06-07T04:30:39.485Z,6.17
2019-06-07T04:33:08.144Z,6.03
2019-06-07T04:35:40.030Z,6.03
2019-06-07T04:38:13.400Z,5.60
2019-06-07T04:40:43.118Z,5.70
2019-06-07T04:43:12.348Z,5.67
2019-06-07T04:45:50.343Z,5.97
2019-06-07T04:48:11.584Z,5.83
2019-06-07T04:50:43.645Z,6.13
2019-06-07T04:53:10.510Z,5.40
2019-06-07T04:55:41.620Z,6.37
2019-06-07T04:58:09.231Z,6.53
2019-06-07T05:01:01.470Z,7.10
2019-06-07T05:03:08.171Z,6.60
2019-06-07T05:05:40.880Z,6.63
2019-06-07T05:08:07.864Z,6.60
2019-06-07T05:10:38.775Z,7.23
2019-06-07T05:13:07.379Z,7.40
2019-06-07T05:15:38.986Z,8.07
2019-06-07T05:18:06.159Z,7.37
2019-06-07T05:20:36.113Z,7.47
2019-06-07T05:23:04.865Z,7.27
2019-06-07T05:25:35.425Z,7.50
2019-06-07T05:28:03.775Z,7.53
2019-06-07T05:33:09.149Z,7.67
2019-06-07T05:35:41.365Z,7.70
2019-06-07T05:38:08.542Z,7.63
2019-06-07T05:40:42.952Z,8.03
2019-06-07T05:43:27.286Z,8.00
2019-06-07T05:45:55.799Z,8.30
2019-06-07T05:48:24.397Z,7.70
2019-06-07T05:50:56.793Z,8.10
2019-06-07T05:53:23.171Z,7.53
2019-06-07T05:55:51.727Z,8.13
2019-06-07T05:58:20.244Z,8.07
2019-06-07T06:00:48.894Z,7.50
2019-06-07T06:03:17.614Z,8.23
2019-06-07T06:05:54.579Z,8.30
2019-06-07T06:08:18.012Z,8.10
2019-06-07T06:10:48.632Z,7.47
2019-06-07T06:13:16.718Z,7.97
2019-06-07T06:15:58.519Z,7.30
2019-06-07T06:18:15.443Z,8.30
2019-06-07T06:23:14.268Z,8.73
2019-06-07T06:25:52.541Z,8.23
2019-06-07T06:28:15.756Z,8.00
2019-06-07T06:30:47.286Z,8.80
2019-06-07T06:33:30.720Z,8.43
2019-06-07T06:35:47.485Z,8.67
2019-06-07T06:38:14.391Z,8.90
2019-06-07T06:40:46.295Z,8.87
2019-06-07T06:43:13.155Z,8.33
2019-06-07T06:45:42.928Z,8.57
2019-06-07T06:48:12.265Z,9.10
2019-06-07T06:50:41.123Z,9.27
2019-06-07T06:53:09.745Z,8.80
2019-06-07T06:55:39.081Z,8.67
2019-06-07T06:58:07.641Z,8.57
2019-06-07T07:00:53.541Z,8.87
2019-06-07T07:03:56.528Z,8.77
2019-06-07T07:05:50.840Z,8.10
2019-06-07T07:08:17.984Z,6.07
2019-06-07T07:10:51.134Z,3.60
2019-06-07T07:13:17.359Z,3.30
2019-06-07T07:15:50.126Z,3.43
2019-06-07T07:18:16.226Z,3.20
2019-06-07T07:20:45.876Z,3.10
2019-06-07T07:23:15.146Z,3.07
2019-06-07T07:25:50.592Z,3.00
2019-06-07T07:28:14.154Z,2.80
2019-06-07T07:30:54.859Z,2.73
2019-06-07T07:33:20.794Z,2.70
2019-06-07T07:36:10.879Z,3.20
2019-06-07T07:38:20.264Z,3.00
2019-06-07T07:41:01.863Z,3.20
2019-06-07T07:43:19.050Z,3.30
2019-06-07T07:45:55.012Z,2.80
2019-06-07T07:48:18.391Z,2.83
2019-06-07T07:50:49.737Z,2.90
2019-06-07T07:53:17.711Z,2.90
2019-06-07T07:55:51.559Z,3.23
2019-06-07T07:58:16.810Z,2.97
2019-06-07T08:01:00.358Z,3.00
2019-06-07T08:03:15.622Z,2.87
2019-06-07T08:05:45.714Z,2.93
2019-06-07T08:08:15.005Z,3.00
2019-06-07T08:10:43.518Z,2.70
2019-06-07T08:13:24.537Z,2.67
2019-06-07T08:15:42.418Z,2.93
2019-06-07T08:18:10.970Z,3.07
2019-06-07T08:20:39.574Z,2.90
2019-06-07T08:23:08.269Z,2.80
2019-06-07T08:25:36.838Z,2.40
2019-06-07T08:28:11.387Z,2.80
2019-06-07T08:30:52.349Z,3.10
2019-06-07T08:33:25.460Z,2.83
2019-06-07T08:36:05.909Z,2.90
2019-06-07T08:38:33.964Z,2.70
2019-06-07T08:40:41.124Z,3.37
2019-06-07T08:43:19.500Z,2.70
2019-06-07T08:45:40.072Z,3.03
2019-06-07T08:48:26.578Z,2.70
2019-06-07T08:50:39.014Z,2.80
2019-06-07T08:53:12.119Z,2.60
2019-06-07T08:55:37.926Z,2.60
2019-06-07T08:58:08.758Z,3.00
2019-06-07T09:00:46.903Z,2.83
2019-06-07T09:03:07.722Z,2.77
2019-06-07T09:05:36.329Z,3.07
2019-06-07T09:08:28.594Z,3.07
2019-06-07T09:10:35.571Z,3.10
2019-06-07T09:13:10.969Z,2.73
2019-06-07T09:15:34.686Z,2.83
2019-06-07T09:18:37.799Z,3.50
2019-06-07T09:20:48.476Z,3.13
2019-06-07T09:23:17.980Z,2.70
2019-06-07T09:25:57.248Z,3.07
2019-06-07T09:28:20.266Z,2.90
2019-06-07T09:30:47.636Z,3.07
2019-06-07T09:33:16.179Z,2.90
2019-06-07T09:35:44.885Z,2.60
2019-06-07T09:38:24.974Z,2.87
2019-06-07T09:40:43.807Z,2.70
2019-06-07T09:43:59.839Z,2.93
2019-06-07T09:45:43.354Z,2.80
2019-06-07T09:48:16.019Z,2.80
2019-06-07T09:50:42.265Z,3.30
2019-06-07T09:53:21.776Z,3.07
2019-06-07T09:55:41.360Z,2.73
2019-06-07T09:58:48.665Z,3.03
2019-06-07T10:00:42.319Z,3.00
2019-06-07T10:03:20.188Z,2.70
2019-06-07T10:05:41.763Z,3.13
2019-06-07T10:08:54.249Z,3.10
2019-06-07T10:10:42.912Z,3.17
2019-06-07T10:13:11.027Z,2.80
2019-06-07T10:15:39.674Z,3.00
2019-06-07T10:18:09.236Z,3.33
2019-06-07T10:20:38.210Z,2.80
2019-06-07T10:23:09.971Z,2.80
2019-06-07T10:25:38.829Z,2.63
2019-06-07T10:28:08.204Z,2.90
2019-06-07T10:30:37.014Z,2.90
2019-06-07T10:33:06.886Z,2.70
2019-06-07T10:35:35.844Z,2.77
2019-06-07T10:38:04.672Z,2.90
2019-06-07T10:40:33.346Z,2.80
2019-06-07T10:43:02.974Z,2.50
2019-06-07T10:45:31.660Z,2.63
2019-06-07T10:48:01.401Z,2.33
2019-06-07T10:50:30.221Z,2.80
2019-06-07T10:52:58.746Z,2.50
2019-06-07T10:55:27.259Z,2.50
2019-06-07T10:57:55.806Z,2.27
2019-06-07T11:00:25.347Z,2.70
2019-06-07T11:02:55.292Z,2.80
2019-06-07T11:05:24.053Z,2.53
2019-06-07T11:07:52.709Z,2.60
2019-06-07T11:10:21.987Z,2.60
2019-06-07T11:12:50.692Z,2.70
2019-06-07T11:15:19.703Z,2.50
2019-06-07T11:17:51.949Z,2.70
2019-06-07T11:20:21.223Z,2.53
2019-06-07T11:22:59.085Z,2.80
2019-06-07T11:25:36.260Z,2.50
2019-06-07T11:28:08.402Z,2.77
2019-06-07T11:30:42.924Z,2.43
2019-06-07T11:36:11.143Z,2.57
2019-06-07T11:39:01.506Z,2.57
2019-06-07T11:41:36.365Z,2.53
2019-06-07T11:44:06.783Z,2.53
2019-06-07T11:46:35.445Z,2.87
2019-06-07T11:49:06.304Z,2.73
2019-06-07T11:51:35.023Z,2.30
2019-06-07T11:54:03.568Z,2.50
2019-06-07T11:56:32.164Z,2.30
2019-06-07T11:59:01.287Z,2.73
2019-06-07T12:01:32.754Z,2.52
2019-06-07T12:04:01.267Z,2.80
2019-06-07T12:06:29.823Z,2.60
2019-06-07T12:08:58.490Z,2.50
2019-06-07T12:11:27.090Z,2.77
2019-06-07T12:13:55.656Z,2.50
2019-06-07T12:16:24.342Z,2.53
2019-06-07T12:18:52.877Z,2.90
2019-06-07T12:21:21.375Z,2.50
2019-06-07T12:23:49.946Z,2.53
2019-06-07T12:26:18.717Z,2.60
2019-06-07T12:28:51.104Z,3.37
2019-06-07T12:31:23.143Z,2.58
2019-06-07T12:33:54.500Z,2.60
2019-06-07T12:54:35.917Z,2.70
2019-06-07T12:57:04.484Z,2.90
2019-06-07T12:59:32.993Z,3.12
2019-06-07T13:02:02.558Z,2.90
2019-06-07T13:04:31.170Z,2.37
2019-06-07T13:06:59.812Z,2.50
2019-06-07T13:09:28.325Z,2.50
2019-06-07T13:11:56.800Z,2.58
2019-06-07T13:14:25.290Z,2.40
2019-06-07T13:16:53.814Z,2.40
2019-06-07T13:19:22.292Z,2.45
2019-06-07T13:21:50.791Z,2.58
2019-06-07T13:24:20.815Z,2.70
2019-06-07T13:26:49.484Z,2.60
2019-06-07T13:29:18.743Z,2.60
2019-06-07T13:31:47.369Z,2.10
2019-06-07T13:34:16.177Z,2.40
2019-06-07T13:36:44.804Z,2.72
2019-06-07T13:39:13.460Z,2.40
2019-06-07T13:41:43.311Z,2.70
2019-06-07T13:44:11.921Z,2.90
2019-06-07T13:46:40.417Z,2.67
2019-06-07T13:49:08.944Z,3.07
2019-06-07T13:51:37.528Z,2.62
2019-06-07T13:54:06.116Z,2.93
2019-06-07T13:56:34.610Z,2.70
2019-06-07T13:59:03.282Z,3.30
2019-06-07T14:01:31.803Z,3.17
2019-06-07T14:04:00.280Z,3.00
2019-06-07T14:06:30.301Z,2.80
2019-06-07T14:08:58.890Z,2.70
2019-06-07T14:11:27.867Z,3.05
2019-06-07T14:13:56.458Z,2.83
2019-06-07T14:16:26.177Z,2.90
2019-06-07T14:18:54.826Z,2.65
2019-06-07T14:21:24.509Z,2.50
2019-06-07T14:23:53.123Z,2.35
2019-06-07T14:26:21.637Z,2.92
2019-06-07T14:28:50.171Z,2.90
2019-06-07T14:31:18.673Z,3.00
2019-06-07T14:33:47.182Z,2.63
2019-06-07T14:36:15.678Z,2.63
2019-06-07T14:38:44.268Z,2.77
2019-06-07T14:41:12.774Z,2.30
2019-06-07T14:43:41.541Z,2.42
2019-06-07T14:46:10.331Z,2.70
2019-06-07T14:48:38.924Z,2.67
2019-06-07T14:51:07.401Z,2.72
2019-06-07T14:53:35.901Z,2.47
2019-06-07T14:56:04.640Z,2.50
2019-06-07T14:58:38.070Z,2.60
2019-06-07T15:01:03.353Z,2.60
2019-06-07T15:03:32.731Z,2.87
2019-06-07T15:06:01.471Z,2.70
2019-06-07T15:08:30.669Z,2.60
2019-06-07T15:10:59.278Z,2.58
2019-06-07T15:13:29.340Z,2.40
2019-06-07T15:15:58.005Z,2.80
2019-06-07T15:18:27.625Z,2.40
2019-06-07T15:20:56.181Z,2.67
2019-06-07T15:23:24.678Z,2.70
2019-06-07T15:25:53.177Z,2.52
2019-06-07T15:28:21.647Z,2.77
2019-06-07T15:30:50.201Z,2.50
2019-06-07T15:33:21.575Z,2.50
2019-06-07T15:35:50.068Z,2.90
2019-06-07T15:38:18.591Z,2.83
2019-06-07T15:40:47.129Z,2.70
2019-06-07T15:43:15.666Z,2.90
2019-06-07T15:45:44.780Z,2.80
2019-06-07T15:48:13.555Z,2.50
2019-06-07T15:50:42.080Z,3.43
2019-06-07T15:53:10.610Z,2.73
2019-06-07T15:55:43.879Z,3.53
2019-06-07T15:58:09.371Z,2.90
2019-06-07T16:00:40.553Z,3.30
2019-06-07T16:03:08.195Z,3.00
2019-06-07T16:05:36.664Z,2.90
2019-06-07T16:08:05.297Z,3.07
2019-06-07T16:10:34.637Z,2.80
2019-06-07T16:13:03.275Z,2.70
2019-06-07T16:15:32.963Z,3.33
2019-06-07T16:18:01.668Z,2.90
2019-06-07T16:20:30.306Z,2.67
2019-06-07T16:22:58.814Z,2.60
2019-06-07T16:25:27.318Z,2.43
2019-06-07T16:27:55.879Z,2.80
2019-06-07T16:30:24.958Z,3.23
2019-06-07T16:32:53.553Z,3.50
2019-06-07T16:35:22.114Z,3.10
2019-06-07T16:37:52.339Z,3.03
2019-06-07T16:40:21.362Z,3.10
2019-06-07T16:42:49.868Z,3.07
2019-06-07T16:45:18.934Z,2.70
2019-06-07T16:47:48.460Z,3.00
2019-06-07T16:50:17.911Z,3.23
2019-06-07T16:52:47.029Z,2.90
2019-06-07T16:55:20.075Z,2.73
2019-06-07T16:57:50.182Z,2.90
2019-06-07T17:00:20.263Z,2.53
2019-06-07T17:02:48.953Z,2.50
2019-06-07T17:05:17.689Z,2.83
2019-06-07T17:07:46.868Z,2.77
2019-06-07T17:10:16.062Z,2.60
2019-06-07T17:12:45.055Z,3.00
2019-06-07T17:15:15.643Z,2.70
2019-06-07T17:17:45.198Z,2.60
2019-06-07T17:20:14.269Z,2.80
2019-06-07T17:22:44.033Z,2.70
2019-06-07T17:25:13.656Z,3.00
2019-06-07T17:27:42.205Z,3.07
2019-06-07T17:30:12.055Z,2.50
2019-06-07T17:32:53.229Z,2.53
2019-06-07T17:35:11.181Z,2.53
2019-06-07T17:37:41.639Z,3.40
2019-06-07T17:40:10.502Z,2.80
2019-06-07T17:42:38.992Z,3.30
2019-06-07T17:45:12.132Z,2.70
2019-06-07T17:47:41.639Z,2.80
2019-06-07T17:50:10.867Z,2.87
2019-06-07T17:52:39.389Z,2.77
2019-06-07T17:55:08.904Z,2.63
2019-06-07T17:57:37.663Z,2.67
2019-06-07T18:00:27.651Z,2.83
2019-06-07T18:02:38.122Z,2.77
2019-06-07T18:05:07.153Z,2.90
2019-06-07T18:07:36.087Z,2.37
2019-06-07T18:10:06.663Z,2.40
2019-06-07T18:12:35.177Z,2.40
2019-06-07T18:15:05.048Z,2.70
2019-06-07T18:17:34.750Z,2.50
2019-06-07T18:20:05.235Z,2.57
2019-06-07T18:22:33.730Z,2.70
2019-06-07T18:25:02.216Z,2.60
2019-06-07T18:27:30.727Z,2.53
2019-06-07T18:29:59.246Z,2.30
2019-06-07T18:32:27.784Z,2.30
2019-06-07T18:34:56.260Z,2.63
2019-06-07T18:37:24.839Z,2.50
2019-06-07T18:39:53.356Z,2.30
2019-06-07T18:42:21.868Z,2.40
2019-06-07T18:44:51.027Z,2.57
2019-06-07T18:47:19.566Z,2.87
2019-06-07T18:49:49.333Z,2.53
2019-06-07T18:52:19.697Z,2.67
2019-06-07T18:54:48.833Z,2.10
2019-06-07T18:57:17.486Z,2.60
2019-06-07T18:59:46.072Z,2.40
2019-06-07T19:02:14.555Z,2.40
2019-06-07T19:04:43.079Z,2.90
2019-06-07T19:07:11.644Z,2.47
2019-06-07T19:09:40.289Z,2.27
2019-06-07T19:12:08.792Z,2.23
2019-06-07T19:14:37.585Z,2.57
2019-06-07T19:17:06.171Z,2.67
2019-06-07T19:19:34.674Z,2.37
2019-06-07T19:22:03.265Z,2.43
2019-06-07T19:24:31.772Z,2.40
2019-06-07T19:27:00.818Z,2.63
2019-06-07T19:29:33.443Z,2.67
2019-06-07T19:31:59.617Z,2.90
2019-06-07T19:34:28.098Z,2.80
2019-06-07T19:36:57.738Z,2.53
2019-06-07T19:39:26.332Z,2.63
2019-06-07T19:41:55.882Z,2.67
2019-06-07T19:44:24.433Z,2.73
2019-06-07T19:46:54.261Z,2.47
2019-06-07T19:49:22.770Z,2.77
2019-06-07T19:51:51.283Z,2.40
2019-06-07T19:54:19.773Z,2.43
2019-06-07T19:56:48.292Z,1.90
2019-06-07T19:59:16.788Z,1.80
2019-06-07T20:01:45.435Z,1.97
2019-06-07T20:04:16.470Z,1.60
2019-06-07T20:06:46.558Z,2.10
2019-06-07T20:09:15.072Z,1.60
2019-06-07T20:11:43.628Z,2.00
2019-06-07T20:14:12.215Z,2.07
2019-06-07T20:16:40.808Z,1.70
2019-06-07T20:19:09.450Z,1.60
2019-06-07T20:21:37.971Z,1.90
2019-06-07T20:24:24.757Z,1.73
2019-06-07T20:26:36.820Z,1.30
2019-06-07T20:29:24.872Z,1.67
2019-06-07T20:31:38.674Z,1.50
2019-06-07T20:34:07.157Z,1.50
2019-06-07T20:36:35.740Z,1.40
2019-06-07T20:39:12.756Z,1.33
2019-06-07T20:41:36.960Z,1.50
2019-06-07T20:44:05.904Z,1.43
2019-06-07T20:46:34.471Z,1.70
2019-06-07T20:49:04.915Z,1.57
2019-06-07T20:51:33.191Z,1.87
2019-06-07T20:54:02.549Z,1.70
2019-06-07T20:56:31.137Z,1.73
2019-06-07T20:59:00.470Z,1.67
2019-06-07T21:01:29.014Z,1.57
2019-06-07T21:03:58.880Z,1.47
2019-06-07T21:06:27.454Z,1.30
2019-06-07T21:08:55.995Z,1.40
2019-06-07T21:11:24.953Z,1.50
2019-06-07T21:13:53.521Z,1.40
2019-06-07T21:16:22.051Z,1.40
2019-06-07T21:18:50.534Z,1.37
2019-06-07T21:21:19.154Z,1.53
2019-06-07T21:23:47.737Z,1.57
2019-06-07T21:26:16.204Z,1.90
2019-06-07T21:28:44.725Z,1.70
2019-06-07T21:31:13.502Z,1.50
2019-06-07T21:33:41.969Z,1.30
2019-06-07T21:36:11.781Z,1.43
2019-06-07T21:38:40.371Z,1.67
2019-06-07T21:41:09.028Z,1.53
2019-06-07T21:43:40.438Z,1.60
2019-06-07T21:46:14.934Z,1.50
2019-06-07T21:48:39.325Z,1.40
2019-06-07T21:51:08.645Z,1.50
2019-06-07T21:53:37.174Z,1.30
2019-06-07T21:56:07.045Z,1.50
2019-06-07T21:58:35.575Z,1.50
2019-06-07T22:01:08.455Z,1.30
2019-06-07T22:03:37.393Z,1.40
2019-06-07T22:06:06.307Z,1.40
2019-06-07T22:08:36.139Z,1.30
2019-06-07T22:11:06.056Z,1.17
2019-06-07T22:13:34.705Z,1.20
2019-06-07T22:16:04.039Z,1.50
2019-06-07T22:18:32.622Z,1.50
2019-06-07T22:21:01.142Z,1.60
2019-06-07T22:23:29.595Z,1.60
2019-06-07T22:25:58.077Z,1.40
2019-06-07T22:28:28.216Z,1.70
2019-06-07T22:30:56.735Z,1.60
2019-06-07T22:33:25.243Z,1.50
2019-06-07T22:35:53.900Z,1.37
2019-06-07T22:38:22.410Z,1.10
2019-06-07T22:40:50.929Z,1.30
2019-06-07T22:43:19.469Z,1.30
2019-06-07T22:45:48.028Z,1.50
2019-06-07T22:48:17.555Z,1.20
2019-06-07T22:50:46.124Z,1.27
2019-06-07T22:53:15.549Z,1.27
2019-06-07T22:55:46.330Z,1.70
2019-06-07T22:58:15.974Z,1.23
2019-06-07T23:00:44.683Z,1.30
2019-06-07T23:03:14.897Z,1.40
2019-06-07T23:05:45.273Z,1.37
2019-06-07T23:08:14.913Z,1.27
2019-06-07T23:10:45.257Z,1.30
2019-06-07T23:14:09.140Z,2.10
2019-06-07T23:16:54.366Z,1.30
2019-06-07T23:19:07.954Z,1.40
2019-06-07T23:21:36.472Z,1.20
2019-06-07T23:24:05.052Z,1.30
2019-06-07T23:26:33.636Z,1.33
2019-06-07T23:29:02.225Z,1.37
2019-06-07T23:32:24.491Z,1.67
2019-06-07T23:34:52.991Z,1.53
2019-06-07T23:37:21.494Z,1.20
2019-06-07T23:39:49.980Z,1.40
2019-06-07T23:42:19.711Z,1.20
2019-06-07T23:44:48.251Z,1.67
2019-06-07T23:47:17.670Z,1.30
2019-06-07T23:49:46.935Z,1.10
2019-06-07T23:52:15.610Z,1.20
2019-06-07T23:54:44.086Z,1.30
2019-06-07T23:57:13.767Z,1.20
2019-06-07T23:59:42.456Z,1.20
